createdAt,value
2018-10-18T00:00:44.994Z,13.80
2018-10-18T00:06:20.195Z,14.67
2018-10-18T00:08:48.099Z,14.47
2018-10-18T00:11:15.975Z,14.80
2018-10-18T00:13:43.780Z,14.20
2018-10-18T00:16:11.705Z,13.77
2018-10-18T00:18:39.677Z,13.67
2018-10-18T00:21:07.429Z,13.90
2018-10-18T00:23:35.459Z,14.07
2018-10-18T00:26:03.317Z,13.70
2018-10-18T00:28:31.381Z,13.70
2018-10-18T00:30:59.402Z,13.73
2018-10-18T00:33:27.341Z,14.53
2018-10-18T00:35:55.290Z,12.90
2018-10-18T00:38:23.325Z,14.17
2018-10-18T00:40:51.249Z,14.07
2018-10-18T00:43:19.145Z,12.80
2018-10-18T00:45:47.124Z,13.07
2018-10-18T00:48:15.158Z,12.97
2018-10-18T00:50:42.842Z,12.90
2018-10-18T00:53:10.855Z,13.97
2018-10-18T00:55:38.664Z,13.33
2018-10-18T00:58:06.483Z,14.97
2018-10-18T01:00:34.329Z,13.87
2018-10-18T01:03:02.121Z,13.90
2018-10-18T01:05:30.054Z,14.20
2018-10-18T01:07:57.895Z,12.80
2018-10-18T01:10:25.872Z,14.13
2018-10-18T01:12:53.836Z,13.50
2018-10-18T01:15:22.002Z,13.13
2018-10-18T01:17:49.852Z,13.30
2018-10-18T01:20:17.674Z,13.10
2018-10-18T01:22:45.512Z,13.20
2018-10-18T01:25:13.429Z,13.30
2018-10-18T01:27:41.434Z,12.27
2018-10-18T01:30:09.507Z,13.30
2018-10-18T01:32:37.296Z,11.63
2018-10-18T01:35:05.806Z,12.73
2018-10-18T01:37:33.662Z,12.47
2018-10-18T01:40:01.637Z,12.63
2018-10-18T01:42:29.749Z,12.43
2018-10-18T01:44:57.653Z,12.67
2018-10-18T01:47:25.724Z,13.10
2018-10-18T01:49:53.648Z,12.80
2018-10-18T01:52:21.775Z,13.90
2018-10-18T01:54:49.666Z,12.80
2018-10-18T01:57:17.671Z,13.27
2018-10-18T01:59:45.440Z,11.47
2018-10-18T02:02:13.368Z,13.90
2018-10-18T02:04:41.157Z,13.50
2018-10-18T02:07:10.333Z,12.43
2018-10-18T02:09:38.344Z,12.53
2018-10-18T02:12:07.106Z,12.80
2018-10-18T02:14:35.067Z,12.47
2018-10-18T02:17:03.042Z,13.10
2018-10-18T02:19:30.949Z,13.73
2018-10-18T02:21:59.015Z,13.10
2018-10-18T02:24:26.867Z,12.30
2018-10-18T02:26:54.766Z,13.10
2018-10-18T02:29:22.627Z,12.90
2018-10-18T02:31:50.432Z,12.97
2018-10-18T02:34:18.362Z,12.10
2018-10-18T02:36:46.388Z,13.03
2018-10-18T02:39:14.149Z,12.80
2018-10-18T02:41:42.021Z,11.90
2018-10-18T02:44:09.850Z,12.70
2018-10-18T02:46:37.834Z,12.80
2018-10-18T02:49:05.681Z,13.70
2018-10-18T02:51:33.852Z,12.50
2018-10-18T02:54:01.746Z,12.93
2018-10-18T02:56:29.639Z,13.23
2018-10-18T02:58:57.762Z,13.70
2018-10-18T03:01:25.634Z,11.77
2018-10-18T03:03:53.423Z,13.07
2018-10-18T03:06:21.365Z,13.23
2018-10-18T03:08:49.109Z,13.20
2018-10-18T03:11:17.259Z,11.27
2018-10-18T03:13:45.506Z,11.80
2018-10-18T03:16:13.537Z,12.40
2018-10-18T03:18:41.348Z,12.57
2018-10-18T03:21:09.112Z,13.40
2018-10-18T03:23:36.913Z,12.47
2018-10-18T03:26:04.871Z,13.23
2018-10-18T03:28:33.034Z,11.83
2018-10-18T03:31:00.862Z,12.60
2018-10-18T03:33:29.029Z,12.37
2018-10-18T03:35:57.260Z,13.33
2018-10-18T03:38:25.274Z,12.43
2018-10-18T03:40:53.154Z,12.30
2018-10-18T03:43:21.265Z,11.87
2018-10-18T03:45:49.398Z,12.27
2018-10-18T03:48:17.561Z,13.07
2018-10-18T03:50:45.590Z,12.57
2018-10-18T03:53:13.395Z,12.87
2018-10-18T03:55:41.598Z,12.20
2018-10-18T03:58:09.555Z,12.63
2018-10-18T04:00:37.546Z,12.40
2018-10-18T04:03:05.459Z,12.53
2018-10-18T04:05:33.401Z,13.20
2018-10-18T04:08:01.308Z,13.80
2018-10-18T04:10:29.301Z,12.73
2018-10-18T04:12:57.273Z,12.80
2018-10-18T04:15:24.967Z,12.60
2018-10-18T04:17:52.723Z,12.13
2018-10-18T04:20:20.776Z,13.30
2018-10-18T04:22:49.288Z,12.90
2018-10-18T04:25:17.305Z,12.90
2018-10-18T04:27:45.147Z,12.43
2018-10-18T04:30:13.066Z,12.87
2018-10-18T04:32:41.105Z,13.53
2018-10-18T04:35:09.013Z,13.20
2018-10-18T04:37:37.189Z,13.07
2018-10-18T04:40:05.842Z,12.83
2018-10-18T04:42:34.126Z,12.97
2018-10-18T04:45:01.997Z,13.97
2018-10-18T04:47:29.983Z,13.57
2018-10-18T04:49:57.608Z,12.50
2018-10-18T04:52:25.713Z,13.27
2018-10-18T04:54:53.578Z,12.73
2018-10-18T04:57:21.538Z,12.50
2018-10-18T04:59:49.591Z,13.80
2018-10-18T05:02:17.645Z,14.13
2018-10-18T05:04:56.974Z,13.23
2018-10-18T05:07:25.217Z,13.10
2018-10-18T05:09:53.273Z,13.17
2018-10-18T05:12:21.526Z,13.80
2018-10-18T05:14:50.075Z,14.13
2018-10-18T05:17:18.819Z,14.13
2018-10-18T05:19:46.751Z,12.77
2018-10-18T05:22:14.923Z,13.17
2018-10-18T05:24:42.688Z,13.03
2018-10-18T05:27:10.713Z,13.63
2018-10-18T05:29:38.670Z,13.17
2018-10-18T05:32:06.947Z,13.97
2018-10-18T05:34:34.778Z,12.67
2018-10-18T05:37:02.720Z,13.20
2018-10-18T05:39:30.540Z,12.90
2018-10-18T05:41:58.608Z,13.20
2018-10-18T05:44:26.453Z,12.80
2018-10-18T05:46:54.425Z,12.90
2018-10-18T05:49:22.446Z,13.07
2018-10-18T05:51:50.340Z,13.20
2018-10-18T05:54:18.356Z,13.83
2018-10-18T05:56:46.146Z,13.50
2018-10-18T05:59:14.237Z,12.80
2018-10-18T06:01:42.200Z,14.23
2018-10-18T06:04:10.326Z,13.63
2018-10-18T06:06:38.446Z,14.23
2018-10-18T06:09:10.328Z,13.73
2018-10-18T06:11:38.307Z,13.67
2018-10-18T06:14:06.703Z,13.60
2018-10-18T06:16:35.407Z,12.80
2018-10-18T06:19:03.673Z,14.40
2018-10-18T06:21:36.437Z,14.57
2018-10-18T06:24:05.167Z,13.70
2018-10-18T06:26:34.458Z,14.00
2018-10-18T06:29:02.868Z,13.93
2018-10-18T06:31:31.248Z,14.57
2018-10-18T06:34:01.401Z,14.57
2018-10-18T06:36:32.169Z,13.57
2018-10-18T06:39:01.360Z,14.03
2018-10-18T06:41:31.175Z,14.27
2018-10-18T06:44:00.822Z,14.13
2018-10-18T06:46:30.748Z,14.40
2018-10-18T06:48:58.688Z,14.73
2018-10-18T06:51:26.700Z,13.63
2018-10-18T06:53:55.808Z,14.67
2018-10-18T06:56:23.723Z,15.50
2018-10-18T06:58:52.148Z,14.90
2018-10-18T07:01:20.780Z,15.77
2018-10-18T07:03:50.330Z,16.13
2018-10-18T07:06:18.447Z,14.60
2018-10-18T07:08:46.387Z,15.23
2018-10-18T07:11:14.487Z,15.00
2018-10-18T07:13:42.569Z,16.57
2018-10-18T07:16:10.701Z,15.87
2018-10-18T07:18:38.722Z,17.93
2018-10-18T07:21:07.996Z,15.00
2018-10-18T07:23:36.019Z,15.70
2018-10-18T07:26:05.535Z,17.57
2018-10-18T07:28:34.131Z,18.77
2018-10-18T07:31:02.787Z,17.80
2018-10-18T07:33:30.657Z,19.70
2018-10-18T07:35:58.591Z,17.73
2018-10-18T07:38:26.428Z,17.23
2018-10-18T07:40:54.308Z,18.07
2018-10-18T07:43:22.210Z,18.63
2018-10-18T07:45:51.322Z,18.63
2018-10-18T07:48:21.552Z,21.17
2018-10-18T07:50:49.901Z,22.37
2018-10-18T07:53:19.217Z,21.83
2018-10-18T07:55:47.089Z,22.17
2018-10-18T07:58:15.101Z,21.60
2018-10-18T08:00:45.041Z,22.10
2018-10-18T08:03:14.983Z,23.63
2018-10-18T08:05:42.995Z,28.10
2018-10-18T08:08:12.463Z,33.13
2018-10-18T08:10:42.373Z,32.80
2018-10-18T08:13:11.436Z,31.53
2018-10-18T08:15:40.565Z,30.87
2018-10-18T08:18:08.820Z,31.90
2018-10-18T08:20:36.833Z,32.80
2018-10-18T08:23:04.986Z,31.00
2018-10-18T08:25:32.883Z,32.20
2018-10-18T08:28:00.992Z,31.43
2018-10-18T08:30:29.209Z,34.30
2018-10-18T08:32:57.271Z,34.30
2018-10-18T08:35:25.425Z,33.90
2018-10-18T08:37:53.940Z,33.07
2018-10-18T08:40:22.770Z,33.57
2018-10-18T08:42:51.556Z,34.20
2018-10-18T08:45:20.116Z,30.73
2018-10-18T08:47:48.507Z,30.07
2018-10-18T08:50:23.147Z,31.37
2018-10-18T08:52:51.553Z,31.30
2018-10-18T08:55:20.138Z,34.33
2018-10-18T08:57:48.205Z,35.07
2018-10-18T09:00:16.615Z,33.47
2018-10-18T09:02:44.869Z,33.43
2018-10-18T09:05:15.107Z,34.87
2018-10-18T09:07:43.348Z,35.63
2018-10-18T09:10:12.018Z,35.27
2018-10-18T09:12:39.915Z,35.90
2018-10-18T09:15:08.840Z,34.20
2018-10-18T09:17:37.041Z,32.80
2018-10-18T09:20:05.476Z,32.80
2018-10-18T09:22:33.623Z,34.50
2018-10-18T09:25:01.735Z,32.10
2018-10-18T09:27:29.540Z,34.33
2018-10-18T09:29:57.648Z,33.90
2018-10-18T09:32:25.956Z,34.43
2018-10-18T09:34:53.750Z,32.77
2018-10-18T09:37:21.729Z,32.83
2018-10-18T09:39:49.806Z,32.80
2018-10-18T09:42:17.752Z,33.10
2018-10-18T09:44:45.697Z,32.50
2018-10-18T09:47:13.550Z,34.13
2018-10-18T09:49:41.411Z,32.67
2018-10-18T09:52:09.619Z,33.10
2018-10-18T09:54:37.606Z,32.20
2018-10-18T09:57:05.717Z,33.77
2018-10-18T09:59:33.897Z,33.00
2018-10-18T10:02:07.282Z,34.07
2018-10-18T10:04:35.293Z,31.93
2018-10-18T10:07:03.542Z,32.03
2018-10-18T10:09:31.515Z,32.77
2018-10-18T10:11:59.564Z,34.47
2018-10-18T10:14:28.526Z,36.00
2018-10-18T10:16:56.693Z,35.20
2018-10-18T10:19:24.732Z,37.37
2018-10-18T10:21:52.800Z,33.43
2018-10-18T10:24:21.503Z,35.40
2018-10-18T10:26:49.343Z,35.57
2018-10-18T10:29:17.275Z,36.17
2018-10-18T10:31:45.606Z,35.30
2018-10-18T10:34:13.941Z,36.73
2018-10-18T10:36:42.025Z,36.00
2018-10-18T10:39:10.689Z,33.43
2018-10-18T10:41:38.600Z,33.93
2018-10-18T10:44:08.108Z,36.73
2018-10-18T10:46:38.911Z,35.67
2018-10-18T10:49:07.043Z,34.10
2018-10-18T10:51:35.508Z,34.83
2018-10-18T10:54:04.070Z,33.17
2018-10-18T10:56:32.761Z,34.87
2018-10-18T10:59:02.928Z,33.60
2018-10-18T11:01:31.209Z,34.77
2018-10-18T11:03:59.664Z,33.77
2018-10-18T11:06:27.662Z,34.90
2018-10-18T11:08:55.610Z,33.00
2018-10-18T11:11:23.864Z,35.07
2018-10-18T11:13:52.302Z,31.93
2018-10-18T11:16:20.291Z,31.90
2018-10-18T11:18:48.564Z,32.60
2018-10-18T11:21:17.811Z,32.80
2018-10-18T11:23:45.846Z,33.23
2018-10-18T11:26:13.823Z,34.07
2018-10-18T11:28:41.715Z,32.33
2018-10-18T11:31:09.545Z,32.90
2018-10-18T11:33:37.559Z,35.37
2018-10-18T11:36:05.584Z,34.37
2018-10-18T11:38:33.530Z,36.20
2018-10-18T11:41:01.528Z,37.40
2018-10-18T11:43:29.653Z,38.50
2018-10-18T11:45:57.773Z,38.00
2018-10-18T11:48:25.951Z,40.50
2018-10-18T11:50:53.883Z,38.10
2018-10-18T11:53:21.732Z,41.20
2018-10-18T11:55:49.938Z,42.17
2018-10-18T11:58:17.839Z,44.33
2018-10-18T12:00:46.100Z,42.93
2018-10-18T12:03:14.001Z,45.63
2018-10-18T12:05:42.108Z,46.20
2018-10-18T12:08:10.117Z,44.07
2018-10-18T12:10:38.275Z,44.30
2018-10-18T12:13:06.964Z,43.50
2018-10-18T12:15:35.676Z,43.37
2018-10-18T12:18:04.381Z,44.30
2018-10-18T12:20:33.104Z,43.80
2018-10-18T12:23:01.149Z,44.07
2018-10-18T12:25:29.341Z,46.00
2018-10-18T12:27:57.557Z,44.53
2018-10-18T12:30:25.858Z,45.93
2018-10-18T12:32:54.169Z,45.47
2018-10-18T12:35:22.023Z,43.37
2018-10-18T12:37:49.984Z,41.23
2018-10-18T12:40:17.933Z,45.07
2018-10-18T12:42:47.030Z,41.93
2018-10-18T12:45:14.962Z,40.57
2018-10-18T12:47:42.918Z,42.67
2018-10-18T12:50:11.033Z,40.97
2018-10-18T12:52:39.958Z,38.40
2018-10-18T12:55:08.137Z,37.13
2018-10-18T12:57:36.265Z,40.07
2018-10-18T13:00:05.026Z,43.20
2018-10-18T13:02:33.338Z,55.13
2018-10-18T13:05:01.682Z,35.07
2018-10-18T13:07:29.554Z,34.20
2018-10-18T13:09:57.738Z,34.50
2018-10-18T13:12:26.708Z,32.77
2018-10-18T13:14:55.145Z,31.87
2018-10-18T13:17:24.136Z,32.67
2018-10-18T13:19:52.117Z,32.20
2018-10-18T13:22:20.388Z,33.97
2018-10-18T13:24:48.687Z,32.17
2018-10-18T13:27:16.670Z,31.70
2018-10-18T13:29:44.779Z,31.30
2018-10-18T13:32:12.932Z,31.60
2018-10-18T13:34:40.816Z,30.13
2018-10-18T13:37:08.849Z,29.97
2018-10-18T13:39:36.953Z,31.67
2018-10-18T13:42:05.450Z,36.80
2018-10-18T13:44:33.741Z,31.73
2018-10-18T13:47:01.871Z,36.47
2018-10-18T13:49:30.016Z,33.80
2018-10-18T13:51:59.491Z,33.40
2018-10-18T13:54:27.983Z,34.20
2018-10-18T13:56:56.163Z,36.70
2018-10-18T13:59:35.731Z,34.87
2018-10-18T14:02:04.274Z,37.13
2018-10-18T14:04:32.333Z,40.73
2018-10-18T14:07:01.167Z,38.77
2018-10-18T14:09:29.861Z,38.63
2018-10-18T14:11:58.033Z,38.70
2018-10-18T14:14:26.437Z,40.67
2018-10-18T14:16:55.122Z,38.47
2018-10-18T14:19:23.511Z,38.23
2018-10-18T14:21:51.470Z,42.83
2018-10-18T14:24:19.545Z,37.30
2018-10-18T14:26:47.575Z,34.97
2018-10-18T14:29:15.673Z,35.53
2018-10-18T14:31:44.399Z,34.77
2018-10-18T14:34:12.538Z,34.30
2018-10-18T14:36:40.691Z,34.20
2018-10-18T14:39:10.323Z,35.67
2018-10-18T14:41:38.428Z,35.17
2018-10-18T14:44:06.721Z,37.80
2018-10-18T14:46:36.589Z,35.23
2018-10-18T14:49:06.748Z,47.10
2018-10-18T14:51:35.700Z,36.87
2018-10-18T14:54:04.019Z,35.83
2018-10-18T14:56:32.239Z,35.47
2018-10-18T14:59:00.265Z,35.10
2018-10-18T15:01:28.260Z,34.60
2018-10-18T15:03:56.988Z,36.27
2018-10-18T15:06:25.002Z,36.60
2018-10-18T15:08:53.875Z,36.50
2018-10-18T15:11:21.911Z,37.07
2018-10-18T15:13:50.275Z,35.40
2018-10-18T15:16:18.665Z,33.97
2018-10-18T15:18:46.671Z,34.77
2018-10-18T15:21:14.821Z,34.20
2018-10-18T15:23:43.065Z,33.63
2018-10-18T15:26:11.450Z,35.03
2018-10-18T15:28:39.541Z,34.93
2018-10-18T15:31:07.531Z,34.47
2018-10-18T15:33:35.678Z,33.00
2018-10-18T15:36:03.988Z,31.27
2018-10-18T15:38:32.277Z,33.00
2018-10-18T15:41:00.154Z,31.30
2018-10-18T15:43:28.336Z,35.03
2018-10-18T15:45:57.088Z,31.97
2018-10-18T15:48:25.574Z,35.60
2018-10-18T15:50:53.891Z,43.20
2018-10-18T15:53:21.830Z,32.47
2018-10-18T15:55:50.007Z,30.60
2018-10-18T15:58:18.227Z,31.20
2018-10-18T16:00:47.141Z,30.07
2018-10-18T16:03:15.051Z,28.20
2018-10-18T16:05:43.076Z,30.40
2018-10-18T16:08:11.073Z,29.07
2018-10-18T16:10:39.190Z,29.43
2018-10-18T16:13:07.290Z,29.43
2018-10-18T16:15:36.118Z,30.00
2018-10-18T16:18:03.997Z,30.10
2018-10-18T16:20:32.141Z,28.67
2018-10-18T16:23:01.307Z,27.60
2018-10-18T16:25:29.640Z,28.90
2018-10-18T16:27:57.708Z,27.60
2018-10-18T16:30:25.825Z,29.07
2018-10-18T16:32:54.194Z,28.83
2018-10-18T16:35:22.337Z,31.17
2018-10-18T16:37:50.548Z,27.60
2018-10-18T16:40:19.302Z,26.10
2018-10-18T16:42:50.195Z,25.80
2018-10-18T16:45:18.536Z,24.77
2018-10-18T16:47:46.822Z,26.43
2018-10-18T16:50:15.004Z,24.40
2018-10-18T16:52:43.755Z,23.40
2018-10-18T16:55:11.597Z,25.27
2018-10-18T16:57:43.717Z,22.70
2018-10-18T17:00:14.222Z,23.30
2018-10-18T17:02:43.094Z,21.20
2018-10-18T17:05:11.229Z,21.27
2018-10-18T17:07:39.550Z,21.00
2018-10-18T17:10:07.846Z,19.10
2018-10-18T17:12:36.586Z,20.07
2018-10-18T17:15:06.048Z,20.20
2018-10-18T17:17:34.806Z,19.17
2018-10-18T17:20:03.170Z,19.27
2018-10-18T17:22:31.842Z,19.33
2018-10-18T17:24:59.881Z,18.13
2018-10-18T17:27:28.264Z,18.53
2018-10-18T17:29:56.515Z,18.90
2018-10-18T17:32:25.211Z,19.00
2018-10-18T17:34:53.237Z,19.40
2018-10-18T17:37:21.236Z,18.10
2018-10-18T17:39:49.196Z,18.07
2018-10-18T17:42:17.076Z,18.70
2018-10-18T17:44:44.931Z,16.00
2018-10-18T17:47:12.929Z,15.87
2018-10-18T17:49:41.179Z,16.00
2018-10-18T17:52:09.313Z,16.07
2018-10-18T17:54:37.904Z,16.13
2018-10-18T17:57:06.209Z,14.80
2018-10-18T17:59:34.361Z,13.67
2018-10-18T18:02:02.243Z,13.23
2018-10-18T18:04:30.405Z,12.87
2018-10-18T18:06:58.741Z,12.00
2018-10-18T18:09:27.210Z,11.97
2018-10-18T18:11:55.887Z,11.87
2018-10-18T18:14:26.402Z,12.13
2018-10-18T18:16:54.678Z,12.07
2018-10-18T18:19:23.277Z,10.60
2018-10-18T18:21:51.266Z,11.67
2018-10-18T18:24:19.277Z,11.97
2018-10-18T18:26:47.283Z,10.30
2018-10-18T18:29:15.118Z,11.03
2018-10-18T18:31:43.963Z,10.77
2018-10-18T18:34:11.834Z,11.40
2018-10-18T18:36:40.599Z,10.70
2018-10-18T18:39:10.468Z,10.90
2018-10-18T18:41:38.954Z,10.27
2018-10-18T18:44:07.418Z,10.57
2018-10-18T18:46:37.494Z,9.60
2018-10-18T18:49:06.699Z,8.93
2018-10-18T18:51:35.782Z,8.43
2018-10-18T18:54:04.126Z,9.10
2018-10-18T18:56:32.250Z,8.53
2018-10-18T18:59:00.369Z,10.03
2018-10-18T19:01:28.452Z,10.67
2018-10-18T19:03:57.456Z,9.30
2018-10-18T19:06:25.787Z,11.40
2018-10-18T19:08:54.446Z,13.27
2018-10-18T19:11:22.498Z,13.00
2018-10-18T19:13:50.927Z,14.67
2018-10-18T19:16:19.007Z,15.83
2018-10-18T19:18:47.782Z,18.77
2018-10-18T19:21:16.737Z,20.40
2018-10-18T19:23:45.415Z,22.73
2018-10-18T19:26:13.942Z,25.00
2018-10-18T19:28:43.877Z,27.37
2018-10-18T19:31:11.948Z,26.50
2018-10-18T19:33:39.955Z,26.40
2018-10-18T19:36:08.325Z,26.13
2018-10-18T19:38:37.029Z,26.97
2018-10-18T19:41:05.158Z,27.07
2018-10-18T19:43:34.312Z,25.60
2018-10-18T19:46:02.494Z,27.47
2018-10-18T19:48:31.380Z,25.43
2018-10-18T19:50:59.303Z,26.17
2018-10-18T19:53:27.184Z,25.87
2018-10-18T19:55:55.252Z,26.27
2018-10-18T19:58:23.131Z,23.00
2018-10-18T20:00:51.298Z,25.60
2018-10-18T20:03:19.307Z,25.83
2018-10-18T20:05:47.498Z,26.70
2018-10-18T20:08:15.739Z,24.80
2018-10-18T20:10:43.530Z,23.97
2018-10-18T20:13:11.871Z,23.37
2018-10-18T20:15:40.323Z,24.10
2018-10-18T20:18:08.629Z,22.20
2018-10-18T20:20:36.938Z,23.63
2018-10-18T20:23:05.391Z,20.90
2018-10-18T20:25:33.503Z,23.90
2018-10-18T20:28:01.494Z,21.10
2018-10-18T20:30:29.496Z,22.03
2018-10-18T20:32:58.342Z,21.03
2018-10-18T20:35:29.323Z,20.17
2018-10-18T20:37:58.688Z,20.90
2018-10-18T20:40:26.683Z,20.17
2018-10-18T20:42:54.527Z,21.17
2018-10-18T20:45:29.117Z,19.07
2018-10-18T20:47:58.730Z,18.60
2018-10-18T20:50:26.303Z,18.30
2018-10-18T20:52:54.374Z,18.73
2018-10-18T20:55:22.423Z,18.23
2018-10-18T20:57:50.665Z,19.20
2018-10-18T21:00:18.668Z,18.60
2018-10-18T21:02:46.865Z,19.30
2018-10-18T21:05:15.290Z,18.00
2018-10-18T21:07:43.542Z,17.50
2018-10-18T21:10:11.604Z,14.93
2018-10-18T21:12:39.483Z,17.10
2018-10-18T21:15:07.613Z,15.57
2018-10-18T21:17:35.552Z,15.80
2018-10-18T21:20:03.628Z,16.83
2018-10-18T21:22:32.657Z,15.77
2018-10-18T21:25:00.689Z,16.30
2018-10-18T21:27:28.786Z,15.00
2018-10-18T21:29:56.843Z,15.10
2018-10-18T21:32:25.027Z,14.23
2018-10-18T21:34:52.993Z,14.77
2018-10-18T21:37:21.124Z,14.43
2018-10-18T21:39:49.261Z,15.03
2018-10-18T21:42:17.283Z,14.70
2018-10-18T21:44:45.894Z,13.90
2018-10-18T21:47:14.520Z,14.57
2018-10-18T21:49:42.507Z,13.80
2018-10-18T21:52:10.769Z,14.60
2018-10-18T21:54:38.624Z,13.77
2018-10-18T21:57:06.662Z,13.40
2018-10-18T21:59:34.607Z,13.03
2018-10-18T22:02:02.405Z,12.40
2018-10-18T22:04:30.567Z,13.40
2018-10-18T22:06:58.912Z,12.10
2018-10-18T22:09:26.775Z,13.53
2018-10-18T22:11:54.549Z,12.97
2018-10-18T22:14:23.435Z,15.60
2018-10-18T22:16:51.521Z,14.03
2018-10-18T22:19:19.914Z,14.90
2018-10-18T22:21:48.127Z,14.53
2018-10-18T22:24:16.145Z,13.50
2018-10-18T22:26:44.248Z,13.90
2018-10-18T22:29:12.295Z,15.60
2018-10-18T22:31:40.664Z,35.80
2018-10-18T22:34:08.738Z,39.27
2018-10-18T22:36:36.850Z,42.03
2018-10-18T22:39:07.689Z,35.13
2018-10-18T22:41:35.662Z,34.43
2018-10-18T22:44:03.712Z,25.80
2018-10-18T22:46:31.852Z,24.63
2018-10-18T22:48:59.950Z,23.87
2018-10-18T22:51:28.129Z,27.57
2018-10-18T22:53:59.489Z,42.30
2018-10-18T22:56:28.457Z,47.60
2018-10-18T22:58:56.461Z,51.17
2018-10-18T23:01:25.749Z,37.03
2018-10-18T23:03:54.024Z,35.37
2018-10-18T23:06:22.391Z,35.70
2018-10-18T23:08:50.204Z,26.57
2018-10-18T23:11:18.635Z,23.93
2018-10-18T23:13:46.821Z,29.97
2018-10-18T23:16:14.843Z,36.17
2018-10-18T23:18:42.619Z,28.30
2018-10-18T23:21:10.653Z,26.47
2018-10-18T23:23:38.632Z,24.17
2018-10-18T23:26:06.627Z,23.00
2018-10-18T23:28:34.777Z,22.77
2018-10-18T23:31:02.713Z,21.53
2018-10-18T23:33:30.910Z,19.97
2018-10-18T23:35:59.100Z,17.77
2018-10-18T23:38:27.289Z,17.30
2018-10-18T23:40:55.130Z,17.70
2018-10-18T23:43:23.067Z,17.20
2018-10-18T23:45:53.174Z,16.97
2018-10-18T23:48:21.695Z,17.30
2018-10-18T23:50:50.434Z,19.37
2018-10-18T23:53:18.348Z,18.07
2018-10-18T23:55:46.269Z,16.03
2018-10-18T23:58:14.329Z,16.97
